Time;durP1;ratioP1;P1;durP2;ratioP2;P2;SDS_P1;SDS_P2;PMS_P1;PMS_P2;Temp;Humidity;BMP_temperature;BMP_pressure;BME280_temperature;BME280_humidity;BME280_pressure;Samples;Min_cycle;Max_cycle;Signal;HPM_P1;HPM_P2
2023/07/25 00:02:24;;;;;;;30.07;10.53;;;;;;;;;;774569;181;919180;-60
2023/07/25 00:04:50;;;;;;;17.50;9.23;;;;;;;;;;775389;180;919155;-60
2023/07/25 00:07:15;;;;;;;21.47;10.43;;;;;;;;;;778326;180;919411;-60
2023/07/25 00:09:41;;;;;;;21.30;10.30;;;;;;;;;;771712;180;921478;-60
2023/07/25 00:12:07;;;;;;;29.73;10.67;;;;;;;;;;775841;180;922392;-59
2023/07/25 00:14:34;;;;;;;39.97;11.45;;;;;;;;;;777722;180;818219;-56
2023/07/25 00:17:00;;;;;;;28.43;10.13;;;;;;;;;;774541;181;919302;-56
2023/07/25 00:19:25;;;;;;;20.93;8.43;;;;;;;;;;774794;179;911872;-60
2023/07/25 00:21:51;;;;;;;21.37;8.97;;;;;;;;;;774659;179;916041;-60
2023/07/25 00:24:17;;;;;;;21.80;10.23;;;;;;;;;;779939;180;813321;-60
2023/07/25 00:26:43;;;;;;;27.40;9.83;;;;;;;;;;776337;180;892167;-60
2023/07/25 00:29:09;;;;;;;21.23;9.63;;;;;;;;;;769788;178;918654;-55
2023/07/25 00:31:35;;;;;;;30.20;10.00;;;;;;;;;;782867;179;914994;-56
2023/07/25 00:34:00;;;;;;;33.47;10.83;;;;;;;;;;776691;179;894531;-59
2023/07/25 00:36:26;;;;;;;26.27;12.80;;;;;;;;;;772848;179;919501;-60
2023/07/25 00:38:52;;;;;;;21.53;11.17;;;;;;;;;;776648;178;920913;-59
2023/07/25 00:41:18;;;;;;;30.33;11.80;;;;;;;;;;772896;180;914682;-59
2023/07/25 00:43:44;;;;;;;25.40;10.80;;;;;;;;;;770962;178;919264;-59
2023/07/25 00:46:10;;;;;;;46.73;11.50;;;;;;;;;;769619;178;918519;-60
2023/07/25 00:48:35;;;;;;;65.73;11.10;;;;;;;;;;773808;180;907692;-55
2023/07/25 00:51:01;;;;;;;35.20;10.87;;;;;;;;;;769705;180;924451;-55
2023/07/25 00:53:27;;;;;;;18.97;10.30;;;;;;;;;;769291;180;928374;-55
2023/07/25 00:55:53;;;;;;;41.93;10.23;;;;;;;;;;781193;180;821344;-55
2023/07/25 00:58:19;;;;;;;33.47;10.87;;;;;;;;;;776635;180;822225;-61
2023/07/25 01:00:45;;;;;;;25.30;9.97;;;;;;;;;;773799;180;919815;-59
2023/07/25 01:03:10;;;;;;;41.00;11.80;;;;;;;;;;778347;181;815789;-55
2023/07/25 01:05:36;;;;;;;32.63;10.27;;;;;;;;;;767855;180;919908;-59
2023/07/25 01:08:02;;;;;;;34.27;10.23;;;;;;;;;;775945;181;918856;-55
2023/07/25 01:10:28;;;;;;;27.33;9.80;;;;;;;;;;772930;179;916220;-56
2023/07/25 01:12:54;;;;;;;32.63;13.33;;;;;;;;;;770353;181;919943;-55
2023/07/25 01:15:20;;;;;;;21.53;9.37;;;;;;;;;;770601;180;907048;-55
2023/07/25 01:17:46;;;;;;;38.03;11.50;;;;;;;;;;775826;180;919508;-56
2023/07/25 01:20:11;;;;;;;27.00;10.70;;;;;;;;;;776622;180;818028;-61
2023/07/25 01:22:37;;;;;;;32.87;12.10;;;;;;;;;;775335;180;920202;-55
2023/07/25 01:25:03;;;;;;;34.73;11.10;;;;;;;;;;774255;180;919033;-55
2023/07/25 01:27:29;;;;;;;33.97;11.00;;;;;;;;;;772203;180;918383;-56
2023/07/25 01:29:55;;;;;;;26.37;11.23;;;;;;;;;;768702;180;910896;-55
2023/07/25 01:32:21;;;;;;;32.53;11.15;;;;;;;;;;772108;180;928046;-56
2023/07/25 01:34:47;;;;;;;31.03;12.27;;;;;;;;;;773216;181;919390;-60
2023/07/25 01:37:13;;;;;;;35.37;10.70;;;;;;;;;;773014;180;933558;-60
2023/07/25 01:39:38;;;;;;;28.23;11.97;;;;;;;;;;768415;181;918597;-55
2023/07/25 01:42:04;;;;;;;32.30;10.00;;;;;;;;;;775411;178;920174;-59
2023/07/25 01:44:30;;;;;;;27.50;12.20;;;;;;;;;;783251;180;918988;-60
2023/07/25 01:46:57;;;;;;;27.60;8.67;;;;;;;;;;778007;179;931033;-55
2023/07/25 01:49:22;;;;;;;28.40;8.93;;;;;;;;;;778558;180;918452;-55
2023/07/25 01:51:48;;;;;;;40.50;10.47;;;;;;;;;;780176;180;817106;-60
2023/07/25 01:54:16;;;;;;;33.60;10.07;;;;;;;;;;775921;180;817948;-56
2023/07/25 01:56:40;;;;;;;34.63;11.23;;;;;;;;;;773125;178;918915;-59
2023/07/25 01:59:06;;;;;;;25.23;9.00;;;;;;;;;;777359;178;920243;-55
2023/07/25 02:01:32;;;;;;;24.30;10.10;;;;;;;;;;768755;180;919255;-58
2023/07/25 02:03:57;;;;;;;25.43;10.20;;;;;;;;;;779333;178;814092;-55
2023/07/25 02:06:23;;;;;;;23.33;11.20;;;;;;;;;;768578;180;915821;-59
2023/07/25 02:08:49;;;;;;;30.00;9.13;;;;;;;;;;776549;181;889962;-55
2023/07/25 02:11:15;;;;;;;29.67;8.40;;;;;;;;;;770117;180;919890;-55
2023/07/25 02:13:41;;;;;;;32.57;11.53;;;;;;;;;;772890;180;919124;-55
2023/07/25 02:16:07;;;;;;;23.03;9.00;;;;;;;;;;779673;180;920037;-54
2023/07/25 02:18:32;;;;;;;50.50;9.53;;;;;;;;;;764714;181;818326;-59
2023/07/25 02:20:58;;;;;;;34.78;9.40;;;;;;;;;;775583;181;819788;-55
2023/07/25 02:23:24;;;;;;;214.33;17.27;;;;;;;;;;780830;179;918840;-55
2023/07/25 02:25:50;;;;;;;28.33;10.43;;;;;;;;;;776668;179;919571;-55
2023/07/25 02:28:16;;;;;;;16.47;8.87;;;;;;;;;;768320;181;918464;-56
2023/07/25 02:30:42;;;;;;;34.27;9.03;;;;;;;;;;780770;178;816789;-60
2023/07/25 02:33:08;;;;;;;21.83;7.22;;;;;;;;;;767419;179;974162;-59
2023/07/25 02:35:33;;;;;;;24.83;9.70;;;;;;;;;;774099;179;917967;-55
2023/07/25 02:37:59;;;;;;;38.87;9.37;;;;;;;;;;774652;181;914796;-59
2023/07/25 02:40:25;;;;;;;36.47;8.83;;;;;;;;;;778636;179;915363;-60
2023/07/25 02:42:51;;;;;;;33.13;11.37;;;;;;;;;;772352;179;919650;-55
2023/07/25 02:45:17;;;;;;;28.43;9.80;;;;;;;;;;769113;180;921932;-60
2023/07/25 02:47:43;;;;;;;35.13;12.40;;;;;;;;;;777733;180;918759;-55
2023/07/25 02:50:09;;;;;;;35.67;11.93;;;;;;;;;;771391;180;918639;-60
2023/07/25 02:52:35;;;;;;;26.60;9.73;;;;;;;;;;773173;178;922850;-59
2023/07/25 02:55:01;;;;;;;23.57;10.30;;;;;;;;;;777400;180;940745;-59
2023/07/25 02:57:26;;;;;;;25.80;8.53;;;;;;;;;;770630;179;921312;-55
2023/07/25 02:59:52;;;;;;;20.00;9.40;;;;;;;;;;771943;180;920970;-60
2023/07/25 03:02:18;;;;;;;26.77;9.73;;;;;;;;;;773225;179;918828;-58
2023/07/25 03:04:44;;;;;;;21.63;9.00;;;;;;;;;;771506;180;919041;-59
2023/07/25 03:07:10;;;;;;;26.83;8.80;;;;;;;;;;776898;179;919908;-55
2023/07/25 03:09:37;;;;;;;34.47;10.17;;;;;;;;;;776279;178;919299;-59
2023/07/25 03:12:01;;;;;;;20.17;9.13;;;;;;;;;;780377;178;917265;-60
2023/07/25 03:14:27;;;;;;;37.53;9.90;;;;;;;;;;777355;180;919826;-60
2023/07/25 03:16:53;;;;;;;20.42;9.15;;;;;;;;;;770523;180;941419;-55
2023/07/25 03:19:19;;;;;;;32.30;8.90;;;;;;;;;;777158;180;919448;-55
2023/07/25 03:21:45;;;;;;;26.87;9.00;;;;;;;;;;767639;180;921325;-59
2023/07/25 03:24:11;;;;;;;23.87;8.17;;;;;;;;;;768756;180;921753;-55
2023/07/25 03:26:36;;;;;;;14.57;8.00;;;;;;;;;;778057;180;818408;-55
2023/07/25 03:29:02;;;;;;;18.93;10.13;;;;;;;;;;770273;180;926740;-60
2023/07/25 03:31:28;;;;;;;20.37;7.90;;;;;;;;;;777337;179;918997;-55
2023/07/25 03:33:54;;;;;;;17.20;8.57;;;;;;;;;;774588;180;918166;-55
2023/07/25 03:36:20;;;;;;;20.87;7.90;;;;;;;;;;775795;180;913027;-58
2023/07/25 03:38:46;;;;;;;22.00;9.50;;;;;;;;;;773277;180;921177;-60
2023/07/25 03:41:12;;;;;;;17.47;9.00;;;;;;;;;;768458;180;918389;-60
2023/07/25 03:43:37;;;;;;;23.43;9.77;;;;;;;;;;773764;180;917469;-55
2023/07/25 03:46:03;;;;;;;28.07;8.43;;;;;;;;;;771869;180;919924;-55
2023/07/25 03:48:29;;;;;;;37.13;10.27;;;;;;;;;;772790;181;915619;-56
2023/07/25 03:50:55;;;;;;;20.50;8.93;;;;;;;;;;775239;180;922590;-59
2023/07/25 03:53:21;;;;;;;28.73;10.60;;;;;;;;;;771499;181;918653;-56
2023/07/25 03:55:47;;;;;;;19.25;9.13;;;;;;;;;;772410;180;846109;-60
2023/07/25 03:58:12;;;;;;;17.97;9.50;;;;;;;;;;776204;180;918447;-61
2023/07/25 04:00:39;;;;;;;18.43;9.20;;;;;;;;;;777512;181;919021;-55
2023/07/25 04:03:04;;;;;;;18.23;8.73;;;;;;;;;;775960;180;916605;-59
2023/07/25 04:05:30;;;;;;;18.23;8.10;;;;;;;;;;778438;178;848511;-59
2023/07/25 04:07:56;;;;;;;25.33;10.30;;;;;;;;;;786282;179;623599;-60
2023/07/25 04:10:22;;;;;;;17.63;8.20;;;;;;;;;;779012;179;812741;-55
2023/07/25 04:12:47;;;;;;;17.80;7.40;;;;;;;;;;773316;179;916263;-55
2023/07/25 04:15:13;;;;;;;17.60;9.10;;;;;;;;;;775181;180;633156;-56
2023/07/25 04:17:39;;;;;;;29.73;10.50;;;;;;;;;;775906;180;850070;-59
2023/07/25 04:20:06;;;;;;;24.70;9.77;;;;;;;;;;768836;180;921037;-55
2023/07/25 04:22:31;;;;;;;28.20;10.20;;;;;;;;;;777309;180;919692;-60
2023/07/25 04:24:57;;;;;;;20.40;9.27;;;;;;;;;;774717;180;914915;-60
2023/07/25 04:27:23;;;;;;;22.48;9.43;;;;;;;;;;769824;180;874434;-60
2023/07/25 04:29:49;;;;;;;21.30;9.20;;;;;;;;;;777007;180;919410;-60
2023/07/25 04:32:15;;;;;;;37.77;11.37;;;;;;;;;;783831;180;613687;-55
2023/07/25 04:34:41;;;;;;;17.10;10.00;;;;;;;;;;774272;178;919565;-56
2023/07/25 04:37:06;;;;;;;17.97;9.70;;;;;;;;;;774485;180;918999;-56
2023/07/25 04:39:32;;;;;;;22.43;10.43;;;;;;;;;;775728;180;916278;-56
2023/07/25 04:41:58;;;;;;;36.33;11.90;;;;;;;;;;774719;179;919415;-60
2023/07/25 04:44:24;;;;;;;31.27;10.97;;;;;;;;;;777013;180;918895;-60
2023/07/25 04:46:50;;;;;;;16.43;10.07;;;;;;;;;;777293;180;933767;-55
2023/07/25 04:49:16;;;;;;;17.70;10.10;;;;;;;;;;769065;181;920043;-56
2023/07/25 04:51:42;;;;;;;18.30;10.20;;;;;;;;;;772375;179;919926;-56
2023/07/25 04:54:07;;;;;;;19.93;9.90;;;;;;;;;;764874;181;920670;-56
2023/07/25 04:56:33;;;;;;;20.27;9.40;;;;;;;;;;771990;181;816735;-56
2023/07/25 04:58:59;;;;;;;15.33;8.67;;;;;;;;;;774160;179;916609;-59
2023/07/25 05:01:25;;;;;;;13.90;9.47;;;;;;;;;;774599;179;917786;-56
2023/07/25 05:03:51;;;;;;;16.20;9.70;;;;;;;;;;778480;179;870174;-59
2023/07/25 05:06:17;;;;;;;18.47;9.93;;;;;;;;;;775352;181;919158;-59
2023/07/25 05:08:42;;;;;;;13.00;10.00;;;;;;;;;;774682;179;922034;-61
2023/07/25 05:11:08;;;;;;;22.50;9.00;;;;;;;;;;780432;179;919742;-56
2023/07/25 05:13:34;;;;;;;20.53;9.47;;;;;;;;;;774499;180;918807;-59
2023/07/25 05:16:00;;;;;;;18.40;9.33;;;;;;;;;;774027;178;918729;-56
2023/07/25 05:18:26;;;;;;;20.23;10.27;;;;;;;;;;783647;179;819190;-56
2023/07/25 05:20:52;;;;;;;17.80;9.73;;;;;;;;;;775942;179;918716;-61
2023/07/25 05:23:17;;;;;;;15.60;8.53;;;;;;;;;;777998;179;919287;-61
2023/07/25 05:25:43;;;;;;;19.03;9.60;;;;;;;;;;776773;179;921606;-59
2023/07/25 05:28:09;;;;;;;17.40;10.20;;;;;;;;;;782228;180;817403;-61
2023/07/25 05:30:35;;;;;;;18.90;10.50;;;;;;;;;;777739;180;922019;-59
2023/07/25 05:33:01;;;;;;;13.60;8.83;;;;;;;;;;775546;180;925989;-56
2023/07/25 05:35:27;;;;;;;16.10;8.77;;;;;;;;;;779594;179;918263;-56
2023/07/25 05:37:52;;;;;;;16.83;9.43;;;;;;;;;;776942;180;918535;-61
2023/07/25 05:40:18;;;;;;;19.60;8.10;;;;;;;;;;774781;180;919408;-60
2023/07/25 05:42:44;;;;;;;18.00;8.40;;;;;;;;;;778952;180;922873;-56
2023/07/25 05:45:10;;;;;;;11.57;7.30;;;;;;;;;;774909;179;918748;-57
2023/07/25 05:47:36;;;;;;;14.43;9.17;;;;;;;;;;771150;180;941809;-60
2023/07/25 05:50:02;;;;;;;16.20;9.38;;;;;;;;;;772734;180;942826;-61
2023/07/25 05:52:28;;;;;;;11.83;9.50;;;;;;;;;;772887;180;919666;-61
2023/07/25 05:54:54;;;;;;;14.97;8.87;;;;;;;;;;767718;180;919480;-56
2023/07/25 05:57:20;;;;;;;14.33;8.20;;;;;;;;;;768114;180;919892;-56
2023/07/25 05:59:46;;;;;;;14.83;8.23;;;;;;;;;;777968;180;919006;-56
2023/07/25 06:02:11;;;;;;;13.90;7.75;;;;;;;;;;771705;180;817180;-60
2023/07/25 06:04:37;;;;;;;13.00;8.20;;;;;;;;;;774448;180;915862;-56
2023/07/25 06:07:03;;;;;;;11.27;7.90;;;;;;;;;;781384;179;819133;-60
2023/07/25 06:09:29;;;;;;;11.87;7.33;;;;;;;;;;769835;180;925798;-60
2023/07/25 06:11:55;;;;;;;11.13;7.40;;;;;;;;;;773647;180;914412;-56
2023/07/25 06:14:21;;;;;;;14.93;7.70;;;;;;;;;;779675;180;917450;-56
2023/07/25 06:16:47;;;;;;;16.20;8.20;;;;;;;;;;773590;180;919031;-59
2023/07/25 06:19:13;;;;;;;10.43;6.40;;;;;;;;;;769572;180;916499;-59
2023/07/25 06:21:38;;;;;;;9.67;6.40;;;;;;;;;;773516;179;842119;-57
2023/07/25 06:24:04;;;;;;;13.47;7.63;;;;;;;;;;777756;180;859494;-56
2023/07/25 06:26:30;;;;;;;9.70;6.97;;;;;;;;;;771066;179;919320;-60
2023/07/25 06:28:56;;;;;;;11.33;7.60;;;;;;;;;;778010;179;917196;-57
2023/07/25 06:31:22;;;;;;;12.97;7.43;;;;;;;;;;781846;179;922328;-56
2023/07/25 06:33:48;;;;;;;15.53;7.50;;;;;;;;;;776930;179;814793;-57
2023/07/25 06:36:14;;;;;;;12.20;6.60;;;;;;;;;;774959;180;814922;-56
2023/07/25 06:38:39;;;;;;;13.23;7.67;;;;;;;;;;778336;180;815388;-60
2023/07/25 06:41:06;;;;;;;17.50;8.67;;;;;;;;;;774312;179;915491;-60
2023/07/25 06:43:32;;;;;;;10.30;7.40;;;;;;;;;;775669;180;919985;-60
2023/07/25 06:45:58;;;;;;;12.10;7.20;;;;;;;;;;772894;179;920212;-57
2023/07/25 06:48:24;;;;;;;10.23;7.50;;;;;;;;;;767821;181;917889;-58
2023/07/25 06:50:50;;;;;;;15.20;8.33;;;;;;;;;;764895;180;919057;-56
2023/07/25 06:53:15;;;;;;;10.00;6.90;;;;;;;;;;774490;180;917594;-60
2023/07/25 06:55:41;;;;;;;11.20;6.87;;;;;;;;;;771326;180;926586;-60
2023/07/25 06:58:07;;;;;;;15.00;8.23;;;;;;;;;;774943;179;918592;-60
2023/07/25 07:00:34;;;;;;;8.88;6.00;;;;;;;;;;773678;180;819753;-60
2023/07/25 07:03:00;;;;;;;9.33;7.03;;;;;;;;;;779543;180;815359;-60
2023/07/25 07:05:26;;;;;;;10.53;6.60;;;;;;;;;;772628;180;918323;-60
2023/07/25 07:07:53;;;;;;;13.83;7.80;;;;;;;;;;771697;179;920075;-57
2023/07/25 07:10:17;;;;;;;9.23;6.70;;;;;;;;;;773160;180;920618;-60
2023/07/25 07:12:47;;;;;;;13.90;6.27;;;;;;;;;;772361;180;928100;-60
2023/07/25 07:15:09;;;;;;;9.27;5.97;;;;;;;;;;767662;181;919495;-56
2023/07/25 07:17:35;;;;;;;11.03;7.10;;;;;;;;;;775650;180;918498;-57
2023/07/25 07:20:01;;;;;;;9.20;6.00;;;;;;;;;;772930;180;829967;-57
2023/07/25 07:22:27;;;;;;;10.63;6.17;;;;;;;;;;776146;179;911577;-57
2023/07/25 07:24:53;;;;;;;8.30;5.27;;;;;;;;;;776571;180;897825;-61
2023/07/25 07:27:19;;;;;;;9.00;5.13;;;;;;;;;;784841;179;614947;-62
2023/07/25 07:29:44;;;;;;;9.10;6.23;;;;;;;;;;779435;180;817893;-57
2023/07/25 07:32:10;;;;;;;9.37;6.17;;;;;;;;;;778132;180;918008;-62
2023/07/25 07:34:36;;;;;;;10.60;6.53;;;;;;;;;;779084;181;911934;-61
2023/07/25 07:37:02;;;;;;;11.50;7.63;;;;;;;;;;777415;180;717860;-61
2023/07/25 07:39:28;;;;;;;9.63;6.33;;;;;;;;;;777113;177;809452;-61
2023/07/25 07:41:54;;;;;;;9.80;5.37;;;;;;;;;;775082;180;916174;-57
2023/07/25 07:44:19;;;;;;;11.80;5.90;;;;;;;;;;775988;180;913840;-61
2023/07/25 07:46:45;;;;;;;6.90;5.10;;;;;;;;;;775332;179;918242;-58
2023/07/25 07:49:11;;;;;;;8.50;5.20;;;;;;;;;;778406;179;919301;-64
2023/07/25 07:51:37;;;;;;;9.40;6.90;;;;;;;;;;771440;181;918166;-63
2023/07/25 07:54:03;;;;;;;11.30;5.50;;;;;;;;;;772236;180;919537;-58
2023/07/25 07:56:29;;;;;;;10.30;6.30;;;;;;;;;;777592;179;813535;-58
2023/07/25 07:58:54;;;;;;;8.77;5.57;;;;;;;;;;776218;180;818593;-63
2023/07/25 08:01:21;;;;;;;9.00;4.67;;;;;;;;;;774501;180;628143;-59
2023/07/25 08:03:47;;;;;;;6.57;5.07;;;;;;;;;;772405;180;919121;-58
2023/07/25 08:06:13;;;;;;;6.90;5.20;;;;;;;;;;775843;179;817204;-59
2023/07/25 08:08:39;;;;;;;9.90;5.67;;;;;;;;;;772015;181;812659;-62
2023/07/25 08:11:04;;;;;;;8.70;5.60;;;;;;;;;;771376;180;919747;-65
2023/07/25 08:13:30;;;;;;;7.50;5.03;;;;;;;;;;770046;180;918588;-58
2023/07/25 08:15:56;;;;;;;8.70;5.63;;;;;;;;;;776952;179;901745;-58
2023/07/25 08:18:22;;;;;;;12.30;4.70;;;;;;;;;;770540;180;917529;-62
2023/07/25 08:20:48;;;;;;;7.10;4.60;;;;;;;;;;773080;179;931900;-58
2023/07/25 08:23:14;;;;;;;5.50;4.10;;;;;;;;;;776159;179;919691;-62
2023/07/25 08:25:40;;;;;;;7.90;5.00;;;;;;;;;;770523;179;919963;-58
2023/07/25 08:28:05;;;;;;;9.20;4.57;;;;;;;;;;771363;180;918963;-63
2023/07/25 08:30:31;;;;;;;6.10;4.37;;;;;;;;;;774530;180;919360;-63
2023/07/25 08:32:57;;;;;;;6.87;4.83;;;;;;;;;;773875;180;919364;-63
2023/07/25 08:35:23;;;;;;;5.77;4.23;;;;;;;;;;771882;180;920777;-58
2023/07/25 08:37:49;;;;;;;6.93;5.27;;;;;;;;;;773122;180;919690;-61
2023/07/25 08:40:15;;;;;;;6.23;4.27;;;;;;;;;;778783;179;917651;-62
2023/07/25 08:42:41;;;;;;;7.70;4.90;;;;;;;;;;776741;179;918436;-62
2023/07/25 08:45:07;;;;;;;5.63;4.07;;;;;;;;;;769327;180;919384;-58
2023/07/25 08:47:33;;;;;;;9.33;4.40;;;;;;;;;;779949;180;819264;-58
2023/07/25 08:49:59;;;;;;;6.00;4.57;;;;;;;;;;773247;180;819703;-58
2023/07/25 08:52:25;;;;;;;8.50;4.37;;;;;;;;;;774521;178;908134;-61
2023/07/25 08:54:51;;;;;;;6.53;5.00;;;;;;;;;;777625;179;916233;-58
2023/07/25 08:57:18;;;;;;;6.20;4.40;;;;;;;;;;775473;179;918935;-61
2023/07/25 08:59:42;;;;;;;7.97;3.97;;;;;;;;;;775443;179;919267;-62
2023/07/25 09:02:08;;;;;;;7.47;4.63;;;;;;;;;;774048;180;918890;-62
2023/07/25 09:04:34;;;;;;;7.57;4.73;;;;;;;;;;770600;181;914505;-62
2023/07/25 09:07:00;;;;;;;8.47;5.20;;;;;;;;;;766311;180;919086;-58
2023/07/25 09:09:26;;;;;;;7.67;5.20;;;;;;;;;;770454;180;919296;-61
2023/07/25 09:11:51;;;;;;;6.27;4.20;;;;;;;;;;771318;180;921591;-61
2023/07/25 09:14:17;;;;;;;6.60;4.30;;;;;;;;;;773758;180;921820;-62
2023/07/25 09:16:43;;;;;;;6.03;4.17;;;;;;;;;;774057;180;919621;-58
2023/07/25 09:19:09;;;;;;;6.40;4.50;;;;;;;;;;776820;180;919515;-57
2023/07/25 09:21:51;;;;;;;11.43;4.07;;;;;;;;;;770685;180;920910;-61
2023/07/25 09:24:16;;;;;;;8.70;4.23;;;;;;;;;;771602;180;919056;-61
2023/07/25 09:26:50;;;;;;;9.23;4.83;;;;;;;;;;776451;180;917050;-57
2023/07/25 09:29:20;;;;;;;7.60;4.20;;;;;;;;;;769904;179;920670;-58
2023/07/25 09:31:45;;;;;;;6.00;3.80;;;;;;;;;;773378;179;919650;-57
2023/07/25 09:34:13;;;;;;;7.10;3.77;;;;;;;;;;774108;180;920025;-58
2023/07/25 09:36:39;;;;;;;6.93;4.67;;;;;;;;;;770916;180;922125;-58
2023/07/25 09:39:05;;;;;;;6.60;4.03;;;;;;;;;;779318;179;921089;-64
2023/07/25 09:41:31;;;;;;;14.97;4.20;;;;;;;;;;772881;180;918605;-66
2023/07/25 09:43:57;;;;;;;10.83;4.03;;;;;;;;;;766708;180;919584;-62
2023/07/25 09:46:22;;;;;;;11.63;4.13;;;;;;;;;;774579;180;912056;-59
2023/07/25 09:48:48;;;;;;;7.20;5.00;;;;;;;;;;777334;180;816508;-59
2023/07/25 09:51:14;;;;;;;6.30;4.43;;;;;;;;;;774028;179;721391;-66
2023/07/25 09:53:42;;;;;;;7.30;4.57;;;;;;;;;;771972;181;921054;-65
2023/07/25 09:56:08;;;;;;;19.13;5.23;;;;;;;;;;779482;180;919573;-65
2023/07/25 09:58:34;;;;;;;10.20;4.50;;;;;;;;;;773681;180;919760;-64
2023/07/25 10:00:59;;;;;;;10.53;4.97;;;;;;;;;;766348;179;917273;-58
2023/07/25 10:03:25;;;;;;;8.80;4.47;;;;;;;;;;781890;179;886274;-64
2023/07/25 10:05:51;;;;;;;8.23;4.13;;;;;;;;;;773286;178;846503;-64
2023/07/25 10:08:17;;;;;;;7.97;4.40;;;;;;;;;;770173;179;918338;-63
2023/07/25 10:10:43;;;;;;;9.80;4.60;;;;;;;;;;772802;178;919315;-58
2023/07/25 10:13:09;;;;;;;11.60;4.97;;;;;;;;;;777979;180;915997;-58
2023/07/25 10:15:34;;;;;;;7.50;5.37;;;;;;;;;;771953;180;917964;-58
2023/07/25 10:18:01;;;;;;;12.40;4.73;;;;;;;;;;776785;179;919078;-59
2023/07/25 10:20:27;;;;;;;7.53;4.03;;;;;;;;;;778805;179;910600;-59
2023/07/25 10:22:53;;;;;;;6.70;4.23;;;;;;;;;;771857;180;896295;-64
2023/07/25 10:25:20;;;;;;;9.47;4.30;;;;;;;;;;774723;180;918512;-58
2023/07/25 10:27:45;;;;;;;11.03;4.43;;;;;;;;;;781199;179;857804;-65
2023/07/25 10:30:17;;;;;;;7.53;4.30;;;;;;;;;;765939;180;918117;-58
2023/07/25 10:32:43;;;;;;;8.27;4.93;;;;;;;;;;774932;180;916033;-65
2023/07/25 10:35:09;;;;;;;8.80;4.30;;;;;;;;;;767777;180;916026;-59
2023/07/25 10:37:37;;;;;;;9.10;4.50;;;;;;;;;;776689;179;816989;-59
2023/07/25 10:40:02;;;;;;;8.70;4.60;;;;;;;;;;773750;181;919311;-59
2023/07/25 10:42:33;;;;;;;5.73;4.30;;;;;;;;;;773041;181;920401;-58
2023/07/25 10:44:59;;;;;;;9.53;4.70;;;;;;;;;;774122;179;918956;-58
2023/07/25 10:47:31;;;;;;;15.37;5.83;;;;;;;;;;780722;181;716469;-65
2023/07/25 10:49:57;;;;;;;10.23;4.90;;;;;;;;;;770445;179;817090;-58
2023/07/25 10:52:29;;;;;;;8.63;4.73;;;;;;;;;;776833;179;814241;-64
2023/07/25 10:54:57;;;;;;;7.13;4.23;;;;;;;;;;768686;179;857038;-64
2023/07/25 10:57:24;;;;;;;7.27;4.53;;;;;;;;;;779839;180;919259;-58
2023/07/25 10:59:55;;;;;;;9.97;4.90;;;;;;;;;;771602;179;916951;-59
2023/07/25 11:02:27;;;;;;;14.30;5.00;;;;;;;;;;762003;181;921158;-64
2023/07/25 11:04:52;;;;;;;11.00;4.93;;;;;;;;;;773909;180;919257;-58
2023/07/25 11:07:19;;;;;;;13.47;6.20;;;;;;;;;;776527;180;816687;-64
2023/07/25 11:09:44;;;;;;;7.43;3.73;;;;;;;;;;775885;180;921222;-58
2023/07/25 11:12:11;;;;;;;7.70;5.10;;;;;;;;;;776816;180;919995;-57
2023/07/25 11:14:41;;;;;;;7.20;4.60;;;;;;;;;;780819;178;919920;-63
2023/07/25 11:17:06;;;;;;;8.43;5.17;;;;;;;;;;764542;181;906026;-58
2023/07/25 11:19:32;;;;;;;10.27;5.43;;;;;;;;;;767410;179;918741;-58
2023/07/25 11:21:58;;;;;;;7.93;5.27;;;;;;;;;;775313;179;922954;-64
2023/07/25 11:24:24;;;;;;;9.63;4.80;;;;;;;;;;773020;180;923195;-64
2023/07/25 11:26:50;;;;;;;10.50;5.27;;;;;;;;;;770053;180;915664;-58
2023/07/25 11:29:16;;;;;;;10.77;5.00;;;;;;;;;;775124;180;920347;-64
2023/07/25 11:31:44;;;;;;;8.40;4.63;;;;;;;;;;774770;180;860479;-58
2023/07/25 11:34:12;;;;;;;8.47;5.10;;;;;;;;;;778065;179;817917;-58
2023/07/25 11:36:39;;;;;;;12.40;5.70;;;;;;;;;;772366;180;908103;-57
2023/07/25 11:39:04;;;;;;;7.00;4.30;;;;;;;;;;773742;180;914487;-64
2023/07/25 11:41:30;;;;;;;7.97;4.70;;;;;;;;;;769189;179;918976;-58
2023/07/25 11:43:56;;;;;;;12.00;5.73;;;;;;;;;;769228;179;919617;-65
2023/07/25 11:46:22;;;;;;;13.30;5.17;;;;;;;;;;771901;180;918850;-64
2023/07/25 11:48:48;;;;;;;7.33;4.30;;;;;;;;;;778499;179;918621;-58
2023/07/25 11:51:14;;;;;;;7.83;5.20;;;;;;;;;;771994;179;918514;-65
2023/07/25 11:53:40;;;;;;;7.63;5.13;;;;;;;;;;765524;179;919042;-58
2023/07/25 11:56:05;;;;;;;6.47;4.60;;;;;;;;;;775829;180;819755;-58
2023/07/25 11:58:31;;;;;;;6.03;4.40;;;;;;;;;;771104;179;920175;-58
2023/07/25 12:00:57;;;;;;;7.53;5.23;;;;;;;;;;767428;180;918370;-58
2023/07/25 12:03:23;;;;;;;11.93;5.60;;;;;;;;;;773011;179;922185;-57
2023/07/25 12:05:51;;;;;;;6.00;4.63;;;;;;;;;;766616;180;945512;-59
2023/07/25 12:08:16;;;;;;;10.10;5.90;;;;;;;;;;767914;179;919413;-57
2023/07/25 12:10:42;;;;;;;9.63;5.80;;;;;;;;;;771387;179;920549;-58
2023/07/25 12:13:08;;;;;;;10.30;6.10;;;;;;;;;;775135;181;915525;-58
2023/07/25 12:15:40;;;;;;;6.33;4.70;;;;;;;;;;770434;179;923436;-58
2023/07/25 12:18:06;;;;;;;9.50;5.90;;;;;;;;;;774991;181;918623;-58
2023/07/25 12:20:32;;;;;;;8.48;4.90;;;;;;;;;;772533;180;919239;-64
2023/07/25 12:22:58;;;;;;;9.63;5.10;;;;;;;;;;775669;181;629888;-58
2023/07/25 12:25:24;;;;;;;7.70;4.37;;;;;;;;;;778258;178;920372;-64
2023/07/25 12:27:52;;;;;;;6.87;4.77;;;;;;;;;;769529;180;920803;-59
2023/07/25 12:30:16;;;;;;;7.97;4.27;;;;;;;;;;780910;178;918809;-58
2023/07/25 12:32:42;;;;;;;7.50;5.03;;;;;;;;;;773603;179;919419;-63
2023/07/25 12:35:08;;;;;;;5.50;4.17;;;;;;;;;;769408;180;923108;-63
2023/07/25 12:37:33;;;;;;;6.23;4.03;;;;;;;;;;774777;180;921256;-64
2023/07/25 12:39:59;;;;;;;8.40;4.17;;;;;;;;;;772627;180;919487;-59
2023/07/25 12:42:25;;;;;;;7.47;4.50;;;;;;;;;;775787;180;918730;-59
2023/07/25 12:44:52;;;;;;;9.10;4.40;;;;;;;;;;779124;180;919137;-58
2023/07/25 12:47:17;;;;;;;7.43;4.83;;;;;;;;;;768011;180;901372;-58
2023/07/25 12:49:43;;;;;;;6.30;4.40;;;;;;;;;;766516;180;816354;-58
2023/07/25 12:52:08;;;;;;;7.93;4.50;;;;;;;;;;776282;180;920372;-64
2023/07/25 12:54:36;;;;;;;5.90;3.60;;;;;;;;;;774727;180;922996;-58
2023/07/25 12:57:00;;;;;;;5.43;3.77;;;;;;;;;;774846;180;919223;-64
2023/07/25 12:59:26;;;;;;;6.90;3.67;;;;;;;;;;764999;180;919128;-59
2023/07/25 13:01:52;;;;;;;5.67;3.70;;;;;;;;;;780596;180;839252;-58
2023/07/25 13:04:18;;;;;;;4.87;3.50;;;;;;;;;;775905;181;923029;-58
2023/07/25 13:06:44;;;;;;;9.80;3.95;;;;;;;;;;771516;181;919694;-59
2023/07/25 13:09:09;;;;;;;4.50;3.43;;;;;;;;;;777795;179;922222;-59
2023/07/25 13:11:35;;;;;;;6.83;2.67;;;;;;;;;;774118;179;915877;-59
2023/07/25 13:14:01;;;;;;;4.97;2.87;;;;;;;;;;771344;179;925913;-58
2023/07/25 13:16:27;;;;;;;6.70;3.47;;;;;;;;;;774227;179;921191;-63
2023/07/25 13:18:53;;;;;;;5.30;2.83;;;;;;;;;;773737;179;819517;-58
2023/07/25 13:21:19;;;;;;;5.33;2.80;;;;;;;;;;771741;180;793655;-65
2023/07/25 13:23:44;;;;;;;5.40;2.60;;;;;;;;;;771746;179;919706;-64
2023/07/25 13:26:10;;;;;;;4.30;2.53;;;;;;;;;;777812;179;884190;-65
2023/07/25 13:28:36;;;;;;;6.40;3.43;;;;;;;;;;776459;180;908946;-66
2023/07/25 13:31:02;;;;;;;6.50;3.93;;;;;;;;;;772011;180;919277;-64
2023/07/25 13:33:28;;;;;;;4.53;3.23;;;;;;;;;;779250;180;888519;-59
2023/07/25 13:35:54;;;;;;;7.43;2.97;;;;;;;;;;774189;179;899066;-63
2023/07/25 13:38:19;;;;;;;6.03;3.30;;;;;;;;;;775602;178;918912;-65
2023/07/25 13:40:45;;;;;;;5.93;3.10;;;;;;;;;;781848;178;914407;-64
2023/07/25 13:43:11;;;;;;;5.93;3.60;;;;;;;;;;770866;179;918900;-64
2023/07/25 13:45:37;;;;;;;6.53;3.07;;;;;;;;;;773072;179;922395;-63
2023/07/25 13:48:03;;;;;;;5.20;3.40;;;;;;;;;;775799;179;843889;-59
2023/07/25 13:50:29;;;;;;;5.83;2.90;;;;;;;;;;774580;180;816453;-58
2023/07/25 13:52:55;;;;;;;4.63;2.30;;;;;;;;;;773741;180;922490;-63
2023/07/25 13:55:20;;;;;;;4.20;2.50;;;;;;;;;;774096;180;919683;-58
2023/07/25 13:57:46;;;;;;;3.30;2.30;;;;;;;;;;778854;179;917914;-58
2023/07/25 14:00:13;;;;;;;3.53;2.00;;;;;;;;;;770171;180;814273;-57
2023/07/25 14:02:38;;;;;;;4.70;2.50;;;;;;;;;;771304;179;819156;-57
2023/07/25 14:05:05;;;;;;;3.87;2.63;;;;;;;;;;779819;180;918313;-57
2023/07/25 14:07:31;;;;;;;4.10;2.60;;;;;;;;;;770553;180;915645;-57
2023/07/25 14:09:56;;;;;;;5.05;2.50;;;;;;;;;;776486;179;906206;-57
2023/07/25 14:12:23;;;;;;;5.20;2.30;;;;;;;;;;773772;180;915968;-58
2023/07/25 14:14:49;;;;;;;5.37;3.00;;;;;;;;;;767180;181;916050;-57